Time;durP1;ratioP1;P1;durP2;ratioP2;P2;SDS_P1;SDS_P2;PMS_P1;PMS_P2;Temp;Humidity;BMP_temperature;BMP_pressure;BME280_temperature;BME280_humidity;BME280_pressure;Samples;Min_cycle;Max_cycle;Signal;HPM_P1;HPM_P2
2022/03/20 00:03:09;;;;;;;;;4.00;3.00;;;;;11.83;30.96;101972.94;6270782;22;45730;-77
2022/03/20 00:05:38;;;;;;;;;3.00;2.25;;;;;11.81;30.86;101968.72;6270104;22;46433;-77
2022/03/20 00:08:08;;;;;;;;;2.00;2.00;;;;;11.79;30.95;101955.66;6270026;22;47116;-77
2022/03/20 00:10:34;;;;;;;;;4.00;4.00;;;;;11.72;30.67;101949.00;6269801;22;45452;-78
2022/03/20 00:13:00;;;;;;;;;3.00;3.00;;;;;11.66;30.56;101939.69;6270410;22;45489;-76
2022/03/20 00:15:27;;;;;;;;;5.00;2.00;;;;;11.62;30.94;101945.19;6271185;22;46385;-76
2022/03/20 00:17:53;;;;;;;;;3.75;3.00;;;;;11.66;30.99;101942.31;6270262;22;46293;-78
2022/03/20 00:20:19;;;;;;;;;5.00;3.25;;;;;11.68;30.89;101953.59;6269762;22;45589;-77
2022/03/20 00:22:45;;;;;;;;;3.75;3.00;;;;;11.66;30.84;101963.31;6270155;22;45704;-77
2022/03/20 00:25:11;;;;;;;;;3.75;3.00;;;;;11.61;30.79;101952.22;6269307;22;46534;-77
2022/03/20 00:27:42;;;;;;;;;2.75;2.00;;;;;11.60;30.89;101950.56;6269901;22;46296;-77
2022/03/20 00:30:08;;;;;;;;;2.50;2.00;;;;;11.53;30.92;101954.44;6270109;22;45570;-78
2022/03/20 00:32:33;;;;;;;;;2.00;2.00;;;;;11.48;30.82;101951.19;6270913;22;45648;-78
2022/03/20 00:35:00;;;;;;;;;2.50;2.00;;;;;11.44;30.83;101941.81;6271002;22;45642;-75
2022/03/20 00:37:28;;;;;;;;;2.75;2.25;;;;;11.47;30.68;101953.91;6271713;22;46146;-77
2022/03/20 00:39:55;;;;;;;;;3.00;2.50;;;;;11.46;30.80;101953.03;6271199;22;46148;-77
2022/03/20 00:42:21;;;;;;;;;2.50;2.50;;;;;11.47;31.03;101957.38;6271914;22;45483;-79
2022/03/20 00:48:09;;;;;;;;;2.25;2.00;;;;;11.39;31.09;101945.59;6272180;22;45839;-78
2022/03/20 00:50:35;;;;;;;;;1.25;1.25;;;;;11.35;31.10;101935.25;6271357;22;45646;-77
2022/03/20 00:53:01;;;;;;;;;2.00;2.00;;;;;11.38;31.04;101936.03;6272503;22;45507;-78
2022/03/20 00:55:26;;;;;;;;;2.25;2.00;;;;;11.28;31.10;101933.88;6243974;22;47479;-77
2022/03/20 00:57:52;;;;;;;;;1.50;1.50;;;;;11.31;31.01;101935.50;6271195;22;47154;-74
2022/03/20 01:00:17;;;;;;;;;4.00;3.00;;;;;11.25;31.13;101927.94;6270870;22;45563;-77
2022/03/20 01:02:44;;;;;;;;;1.50;1.25;;;;;11.28;31.30;101941.75;6271420;22;45719;-77
2022/03/20 01:05:10;;;;;;;;;3.00;3.00;;;;;11.25;31.42;101938.44;6271295;22;47426;-76
2022/03/20 01:07:36;;;;;;;;;2.00;1.50;;;;;11.17;31.34;101938.00;6272451;22;45984;-77
2022/03/20 01:10:04;;;;;;;;;2.75;2.25;;;;;11.21;31.51;101939.53;6271364;22;45511;-75
2022/03/20 01:12:32;;;;;;;;;7.00;3.25;;;;;11.14;31.34;101933.75;6272462;22;45706;-77
2022/03/20 01:18:19;;;;;;;;;2.75;2.00;;;;;11.08;31.59;101925.34;6273201;22;46011;-78
2022/03/20 01:20:45;;;;;;;;;1.75;1.75;;;;;11.08;31.82;101931.44;6244743;22;45569;-77
2022/03/20 01:23:10;;;;;;;;;3.00;2.00;;;;;11.07;31.68;101921.88;6282296;22;45845;-77
2022/03/20 01:25:36;;;;;;;;;1.00;1.00;;;;;11.03;31.66;101911.63;6291295;22;45701;-77
2022/03/20 01:28:02;;;;;;;;;4.00;2.00;;;;;11.00;31.50;101917.91;6290442;22;47520;-76
2022/03/20 01:30:27;;;;;;;;;2.00;2.00;;;;;10.94;31.79;101915.59;6289002;22;45579;-77
2022/03/20 01:32:52;;;;;;;;;2.00;2.00;;;;;10.96;31.82;101907.66;6264228;22;45100;-77
2022/03/20 01:35:18;;;;;;;;;2.00;2.00;;;;;10.95;32.08;101914.66;6291691;22;46147;-77
2022/03/20 01:37:43;;;;;;;;;3.25;2.00;;;;;10.90;31.92;101908.81;6263829;22;46200;-77
2022/03/20 01:40:09;;;;;;;;;2.50;2.50;;;;;10.91;31.97;101915.72;6285033;22;45590;-77
2022/03/20 01:42:38;;;;;;;;;3.00;2.75;;;;;10.87;32.34;101911.59;6287024;22;45494;-79
2022/03/20 01:48:25;;;;;;;;;2.00;2.00;;;;;10.79;32.33;101911.16;6292254;22;45583;-76
2022/03/20 01:50:51;;;;;;;;;2.75;2.00;;;;;10.80;33.02;101910.19;6282772;22;45543;-77
2022/03/20 01:53:19;;;;;;;;;4.00;3.00;;;;;10.75;32.64;101912.19;6274019;22;45510;-76
2022/03/20 01:55:46;;;;;;;;;0.75;0.75;;;;;10.72;32.68;101897.50;6273032;22;45881;-76
2022/03/20 01:58:14;;;;;;;;;1.00;1.00;;;;;10.59;32.81;101885.06;6272382;22;46117;-79
2022/03/20 02:00:40;;;;;;;;;2.00;2.00;;;;;10.57;33.08;101890.41;6272031;22;45555;-76
2022/03/20 02:03:05;;;;;;;;;2.75;2.50;;;;;10.56;33.21;101893.09;6272424;22;45787;-76
2022/03/20 02:05:31;;;;;;;;;5.00;2.50;;;;;10.57;33.45;101895.66;6271384;22;45678;-76
2022/03/20 02:07:59;;;;;;;;;5.25;3.00;;;;;10.53;33.67;101886.22;6271381;22;46016;-77
2022/03/20 02:10:35;;;;;;;;;3.00;3.00;;;;;10.51;33.70;101895.97;6271958;22;45385;-77
2022/03/20 02:13:00;;;;;;;;;2.25;2.25;;;;;10.45;33.99;101894.50;6244114;22;45990;-77
2022/03/20 02:18:48;;;;;;;;;2.00;2.00;;;;;10.34;34.00;101878.47;6271447;22;46008;-75
2022/03/20 02:21:15;;;;;;;;;2.50;2.00;;;;;10.32;34.06;101871.59;6270697;22;45639;-76
2022/03/20 02:23:42;;;;;;;;;2.50;2.00;;;;;10.24;34.15;101864.13;6272770;22;45413;-76
2022/03/20 02:26:09;;;;;;;;;4.50;3.00;;;;;10.21;34.05;101866.88;6249517;22;46724;-76
2022/03/20 02:28:34;;;;;;;;;2.25;1.75;;;;;10.14;34.30;101862.00;6273206;22;46089;-75
2022/03/20 02:31:00;;;;;;;;;2.75;2.00;;;;;10.08;34.50;101866.63;6272505;22;45605;-74
2022/03/20 02:33:27;;;;;;;;;4.00;2.50;;;;;10.03;34.47;101859.91;6272076;22;45514;-75
2022/03/20 02:35:53;;;;;;;;;2.75;2.00;;;;;9.96;34.82;101855.88;6272914;22;46365;-74
2022/03/20 02:38:20;;;;;;;;;5.00;2.50;;;;;9.86;34.94;101841.56;6271562;22;45786;-75
2022/03/20 02:40:46;;;;;;;;;2.25;2.00;;;;;9.72;35.07;101823.06;6243493;22;45860;-76
2022/03/20 02:43:12;;;;;;;;;2.00;2.00;;;;;9.42;35.27;101786.97;6271102;22;45824;-76
2022/03/20 02:45:38;;;;;;;;;3.00;3.00;;;;;9.76;35.45;101843.78;6271569;22;46128;-76
2022/03/20 02:48:04;;;;;;;;;3.00;3.00;;;;;9.67;35.28;101841.56;6270727;22;46070;-77
2022/03/20 02:50:34;;;;;;;;;2.50;2.00;;;;;9.64;35.63;101833.88;6270321;22;45646;-75
2022/03/20 02:53:02;;;;;;;;;2.00;2.00;;;;;9.65;35.67;101848.66;6271929;22;45701;-77
2022/03/20 02:55:35;;;;;;;;;2.00;2.00;;;;;9.57;35.99;101838.53;6270635;22;47068;-77
2022/03/20 02:58:02;;;;;;;;;3.00;3.00;;;;;9.59;35.98;101851.56;6270042;22;45976;-76
2022/03/20 03:00:31;;;;;;;;;5.00;2.00;;;;;9.56;36.09;101849.06;6270500;22;45618;-76
2022/03/20 03:02:58;;;;;;;;;2.00;2.00;;;;;9.49;36.06;101842.44;6271014;22;45840;-77
2022/03/20 03:05:26;;;;;;;;;2.25;2.00;;;;;9.48;36.39;101835.53;6270428;22;47362;-77
2022/03/20 03:10:56;;;;;;;;;4.50;2.50;;;;;9.37;36.79;101828.19;6270894;22;45950;-77
2022/03/20 03:13:26;;;;;;;;;5.25;5.00;;;;;9.37;36.91;101824.72;6270543;22;45757;-75
2022/03/20 03:15:53;;;;;;;;;5.25;4.50;;;;;9.23;37.36;101815.72;6270163;22;46605;-77
2022/03/20 03:18:20;;;;;;;;;5.00;5.00;;;;;9.25;37.67;101819.13;6270645;22;46046;-77
2022/03/20 03:20:46;;;;;;;;;4.00;2.75;;;;;9.17;37.76;101821.25;6270199;22;45464;-76
2022/03/20 03:23:12;;;;;;;;;3.50;2.75;;;;;9.11;38.13;101824.16;6271109;22;45619;-74
2022/03/20 03:25:40;;;;;;;;;4.00;2.75;;;;;9.02;38.19;101821.06;6271252;22;46205;-75
2022/03/20 03:28:07;;;;;;;;;3.00;2.00;;;;;9.00;38.40;101818.56;6270386;22;45531;-76
2022/03/20 03:30:34;;;;;;;;;5.00;3.00;;;;;8.92;38.67;101819.81;6268531;22;45782;-76
2022/03/20 03:33:00;;;;;;;;;3.00;3.00;;;;;8.81;38.96;101809.81;6270834;22;45713;-76
2022/03/20 03:38:16;;;;;;;;;3.00;2.00;;;;;8.79;39.19;101832.59;6270974;22;46046;-78
2022/03/20 03:40:44;;;;;;;;;4.25;3.00;;;;;8.67;39.36;101818.28;6270017;22;45558;-78
2022/03/20 03:43:14;;;;;;;;;2.75;2.75;;;;;8.69;39.17;101823.44;6243270;22;45496;-76
2022/03/20 03:45:41;;;;;;;;;2.75;2.75;;;;;8.66;39.51;101826.19;6270575;22;46514;-75
2022/03/20 03:48:08;;;;;;;;;2.50;2.50;;;;;8.60;39.63;101823.84;6270706;22;46881;-77
2022/03/20 03:50:34;;;;;;;;;3.00;2.00;;;;;8.54;39.52;101809.28;6271091;22;45666;-77
2022/03/20 03:53:00;;;;;;;;;5.00;3.00;;;;;8.57;39.97;101817.00;6271703;22;45685;-76
2022/03/20 03:55:25;;;;;;;;;4.50;3.50;;;;;8.56;40.08;101822.28;6271266;22;45679;-75
2022/03/20 03:57:52;;;;;;;;;3.00;3.00;;;;;8.55;40.05;101812.75;6271399;22;45546;-78
2022/03/20 04:00:19;;;;;;;;;5.00;5.00;;;;;8.52;40.36;101825.94;6270268;22;45795;-76
2022/03/20 04:02:46;;;;;;;;;2.50;2.50;;;;;8.49;40.27;101820.84;6271947;22;45660;-78
2022/03/20 04:05:14;;;;;;;;;4.00;3.00;;;;;8.47;40.21;101830.50;6271325;22;46562;-76
2022/03/20 04:07:40;;;;;;;;;4.50;3.50;;;;;8.43;40.68;101828.00;6271225;22;46596;-77
2022/03/20 04:10:07;;;;;;;;;4.25;4.00;;;;;8.41;40.47;101827.25;6272237;22;45544;-77
2022/03/20 04:12:43;;;;;;;;;6.25;5.00;;;;;8.40;40.50;101819.47;6272987;22;45645;-74
2022/03/20 04:15:09;;;;;;;;;3.50;3.00;;;;;8.41;40.49;101827.25;6245842;22;46591;-77
2022/03/20 04:17:35;;;;;;;;;4.50;4.50;;;;;8.41;40.60;101824.63;6272253;22;45944;-74
2022/03/20 04:20:01;;;;;;;;;5.25;5.25;;;;;8.42;40.78;101828.09;6271116;22;45484;-77
2022/03/20 04:22:28;;;;;;;;;4.75;4.50;;;;;8.44;40.28;101828.88;6271767;22;45738;-76
2022/03/20 04:24:54;;;;;;;;;5.75;5.50;;;;;8.45;40.68;101825.34;6271522;22;47497;-77
2022/03/20 04:27:20;;;;;;;;;8.50;7.00;;;;;8.46;40.75;101823.59;6271142;22;46240;-78
2022/03/20 04:29:46;;;;;;;;;9.75;6.75;;;;;8.41;40.96;101813.34;6270922;22;45536;-77
2022/03/20 04:32:13;;;;;;;;;5.25;5.25;;;;;8.50;40.60;101819.91;6271604;22;45816;-77
2022/03/20 04:34:40;;;;;;;;;10.00;7.00;;;;;8.48;41.19;101819.97;6271187;22;46485;-77
2022/03/20 04:37:06;;;;;;;;;9.50;7.00;;;;;8.45;41.13;101804.47;6272158;22;46005;-76
2022/03/20 04:39:35;;;;;;;;;9.00;7.00;;;;;8.37;41.06;101789.09;6270707;22;45562;-76
2022/03/20 04:42:01;;;;;;;;;9.25;7.50;;;;;8.47;41.55;101809.63;6271328;22;45661;-75
2022/03/20 04:44:27;;;;;;;;;9.00;7.00;;;;;8.38;41.27;101797.78;6272137;22;46790;-75
2022/03/20 04:46:56;;;;;;;;;9.00;7.00;;;;;8.47;41.32;101813.09;6271942;22;45994;-74
2022/03/20 05:00:18;;;;;;;;;9.50;7.50;;;;;8.37;41.97;101804.78;6271562;22;45622;-75
2022/03/20 05:02:45;;;;;;;;;10.00;10.00;;;;;8.34;42.11;101796.22;6271077;22;45852;-75
2022/03/20 05:05:10;;;;;;;;;13.25;10.00;;;;;8.35;42.37;101800.53;6270915;22;47387;-73
2022/03/20 05:07:36;;;;;;;;;9.00;7.00;;;;;8.31;42.47;101799.81;6271833;22;45573;-75
2022/03/20 05:15:31;;;;;;;;;10.00;6.75;;;;;8.23;42.97;101801.03;6271342;22;45645;-73
2022/03/20 05:17:56;;;;;;;;;12.25;9.00;;;;;8.19;42.95;101805.53;6271093;22;45887;-75
2022/03/20 05:20:23;;;;;;;;;8.50;6.50;;;;;8.08;42.91;101794.69;6271072;22;45523;-75
2022/03/20 05:22:49;;;;;;;;;8.00;6.50;;;;;8.13;43.15;101795.34;6271535;22;45672;-74
2022/03/20 05:25:16;;;;;;;;;11.50;9.00;;;;;8.10;43.16;101805.06;6271744;22;45676;-75
2022/03/20 05:27:42;;;;;;;;;9.00;7.25;;;;;8.05;43.14;101794.81;6271274;22;46348;-75
2022/03/20 05:30:08;;;;;;;;;8.50;7.00;;;;;8.05;43.49;101799.16;6270996;22;45849;-75
2022/03/20 05:32:37;;;;;;;;;6.00;5.50;;;;;8.00;43.55;101802.81;6271240;22;45767;-76
2022/03/20 05:35:05;;;;;;;;;9.50;9.00;;;;;7.92;43.94;101798.84;6270868;22;47443;-75
2022/03/20 05:37:30;;;;;;;;;7.25;6.25;;;;;7.92;43.42;101798.84;6270118;22;47495;-75
2022/03/20 05:39:55;;;;;;;;;6.00;5.50;;;;;7.92;43.60;101807.53;6269675;22;45475;-74
2022/03/20 05:42:21;;;;;;;;;9.25;6.00;;;;;7.90;43.68;101800.66;6271304;22;45712;-75
2022/03/20 05:44:46;;;;;;;;;7.00;5.50;;;;;7.89;43.64;101793.75;6271679;22;45800;-76
2022/03/20 05:50:49;;;;;;;;;7.75;5.25;;;;;7.90;43.66;101793.69;6271505;22;45899;-75
2022/03/20 05:53:14;;;;;;;;;7.00;6.00;;;;;7.90;43.54;101795.44;6271172;22;45601;-77
2022/03/20 05:58:23;;;;;;;;;7.00;6.25;;;;;7.87;43.92;101783.38;6271555;22;46098;-76
2022/03/20 06:00:49;;;;;;;;;9.75;8.00;;;;;7.90;43.88;101785.00;6271254;22;45566;-76
2022/03/20 06:03:15;;;;;;;;;7.00;6.00;;;;;7.90;43.92;101792.84;6270978;22;45623;-74
2022/03/20 06:05:40;;;;;;;;;6.25;6.25;;;;;7.87;44.10;101785.16;6270976;22;47216;-76
2022/03/20 06:08:06;;;;;;;;;9.50;7.00;;;;;7.90;44.16;101798.91;6270977;22;45584;-77
2022/03/20 06:10:32;;;;;;;;;9.50;7.25;;;;;7.90;44.29;101796.28;6243916;22;45559;-76
2022/03/20 06:12:58;;;;;;;;;8.25;6.75;;;;;7.85;44.60;101790.41;6271399;22;45742;-76
2022/03/20 06:15:23;;;;;;;;;9.00;7.25;;;;;7.86;44.49;101794.72;6271490;22;45801;-76
2022/03/20 06:17:49;;;;;;;;;13.25;10.00;;;;;7.84;44.61;101796.53;6270580;22;46006;-74
2022/03/20 06:20:16;;;;;;;;;10.50;9.00;;;;;7.83;44.60;101800.06;6270448;22;45625;-75
2022/03/20 06:22:43;;;;;;;;;10.00;8.00;;;;;7.74;44.92;101800.44;6271900;22;45539;-77
2022/03/20 06:25:09;;;;;;;;;10.25;8.50;;;;;7.76;44.72;101803.84;6270950;22;46557;-73
2022/03/20 06:27:46;;;;;;;;;9.25;8.50;;;;;7.79;44.71;101815.91;6243539;22;47382;-76
2022/03/20 06:30:13;;;;;;;;;8.50;6.75;;;;;7.78;44.82;101809.81;6271819;22;45902;-76
2022/03/20 06:32:41;;;;;;;;;8.50;8.50;;;;;7.73;45.06;101801.34;6270974;22;45750;-77
2022/03/20 06:35:08;;;;;;;;;2.00;2.00;;;;;7.77;44.70;101812.53;6271925;22;45640;-76
2022/03/20 06:37:39;;;;;;;;;11.50;8.00;;;;;7.79;44.73;101818.50;6271571;22;46501;-75
2022/03/20 06:40:05;;;;;;;;;9.25;8.00;;;;;7.79;44.54;101826.31;6270314;22;45490;-77
2022/03/20 06:42:31;;;;;;;;;10.75;9.00;;;;;7.76;44.72;101810.81;6271172;22;45455;-75
2022/03/20 06:45:00;;;;;;;;;11.50;10.00;;;;;7.72;44.99;101801.41;6270763;22;46515;-74
2022/03/20 06:50:49;;;;;;;;;9.25;5.75;;;;;7.86;45.01;101833.00;6271025;22;45780;-76
2022/03/20 06:53:17;;;;;;;;;13.25;11.25;;;;;7.75;44.75;101804.75;6270931;22;45736;-76
2022/03/20 06:55:44;;;;;;;;;10.25;10.00;;;;;7.90;44.69;101831.97;6243820;22;45972;-78
2022/03/20 06:58:10;;;;;;;;;9.75;7.75;;;;;7.92;44.77;101835.38;6270731;22;46140;-76
2022/03/20 07:00:37;;;;;;;;;14.25;10.50;;;;;7.92;44.86;101827.56;6271006;22;45495;-76
2022/03/20 07:03:06;;;;;;;;;12.75;10.25;;;;;7.98;45.19;101840.34;6271583;22;45596;-76
2022/03/20 07:20:40;;;;;;;;;15.00;13.00;;;;;7.85;45.35;101854.78;5105065;27;45664;-79
2022/03/20 07:23:09;;;;;;;;;16.00;14.00;;;;;7.87;45.71;101850.38;5088829;27;45681;-80
2022/03/20 07:31:09;;;;;;;;;14.50;13.50;;;;;7.91;45.53;101841.50;5082392;27;46015;-80
2022/03/20 07:33:34;;;;;;;;;14.00;13.00;;;;;7.92;45.50;101849.28;5085994;27;45724;-79
2022/03/20 07:36:00;;;;;;;;;15.75;13.00;;;;;7.93;45.74;101845.75;5103501;27;45919;-79
2022/03/20 07:38:26;;;;;;;;;14.50;13.50;;;;;7.94;45.54;101854.41;5086050;27;45727;-80
2022/03/20 07:40:52;;;;;;;;;20.25;13.50;;;;;7.93;45.67;101852.75;5085358;27;46338;-81
2022/03/20 07:43:18;;;;;;;;;15.50;14.00;;;;;7.93;45.72;101853.59;5084212;27;45819;-79
2022/03/20 07:45:44;;;;;;;;;16.50;13.00;;;;;7.93;45.65;101850.97;5086218;27;45676;-81
2022/03/20 07:48:09;;;;;;;;;17.25;14.75;;;;;7.93;45.53;101850.97;5085168;27;45640;-79
2022/03/20 07:50:35;;;;;;;;;18.00;15.00;;;;;7.94;45.87;101857.03;5094615;27;45671;-81
2022/03/20 07:53:00;;;;;;;;;18.00;14.00;;;;;7.92;45.69;101856.25;5086071;27;45683;-79
2022/03/20 07:55:28;;;;;;;;;17.50;13.25;;;;;7.95;45.50;101858.72;5085715;27;45753;-80
2022/03/20 07:57:54;;;;;;;;;16.75;14.75;;;;;7.98;45.40;101856.88;5086181;27;45858;-80
2022/03/20 08:00:20;;;;;;;;;22.00;18.00;;;;;8.01;45.54;101858.47;5079768;27;46217;-80
2022/03/20 08:02:46;;;;;;;;;17.00;13.50;;;;;8.00;45.60;101844.56;5085831;27;45780;-78
2022/03/20 08:05:11;;;;;;;;;17.50;15.75;;;;;8.03;45.78;101846.22;5085807;27;45771;-78
2022/03/20 08:07:37;;;;;;;;;18.50;15.00;;;;;8.08;45.56;101851.25;5080707;27;46354;-79
2022/03/20 08:10:07;;;;;;;;;17.00;15.50;;;;;8.09;45.61;101847.75;5085382;27;46206;-80
2022/03/20 08:12:33;;;;;;;;;21.75;19.50;;;;;8.11;45.65;101848.50;5074615;27;45686;-80
2022/03/20 08:14:59;;;;;;;;;17.75;14.75;;;;;8.11;45.47;101851.97;5088019;27;45739;-79
2022/03/20 08:17:25;;;;;;;;;21.25;17.75;;;;;8.12;45.73;101850.22;5086174;27;45819;-79
2022/03/20 08:19:50;;;;;;;;;18.50;18.00;;;;;8.16;45.77;101851.78;5083540;27;46074;-79
2022/03/20 08:22:16;;;;;;;;;19.75;17.00;;;;;8.19;45.58;101851.66;5074178;27;45806;-79
2022/03/20 08:24:44;;;;;;;;;18.25;17.50;;;;;8.22;45.79;101855.00;5073061;28;45906;-79
2022/03/20 08:27:10;;;;;;;;;26.00;20.75;;;;;8.23;45.78;101842.78;5074047;27;45759;-79
2022/03/20 08:29:36;;;;;;;;;22.25;19.00;;;;;8.29;45.65;101846.00;5073297;27;45912;-79
2022/03/20 08:32:01;;;;;;;;;22.75;18.75;;;;;8.32;45.36;101850.25;5074326;28;45901;-81
2022/03/20 08:34:27;;;;;;;;;19.00;15.25;;;;;8.31;45.65;101844.19;5070411;28;45736;-81
2022/03/20 08:36:52;;;;;;;;;22.25;19.75;;;;;8.37;45.79;101849.16;5073111;28;45750;-79
2022/03/20 08:39:17;;;;;;;;;25.75;21.75;;;;;8.40;45.78;101848.19;5073050;28;46423;-81
2022/03/20 08:41:43;;;;;;;;;19.00;15.50;;;;;8.45;45.45;101843.63;5072489;28;45649;-78
2022/03/20 08:44:09;;;;;;;;;23.50;21.00;;;;;8.49;45.34;101847.81;5074491;27;45687;-80
2022/03/20 08:46:35;;;;;;;;;28.25;21.50;;;;;8.53;45.35;101845.94;5074037;28;45727;-80
2022/03/20 08:49:08;;;;;;;;;29.00;20.25;;;;;8.58;45.44;101860.50;5073201;27;46075;-79
2022/03/20 08:51:35;;;;;;;;;28.00;21.25;;;;;8.57;45.37;101843.13;5064108;27;45916;-80
2022/03/20 08:54:01;;;;;;;;;27.75;21.50;;;;;8.66;45.51;101860.13;5074094;27;46104;-80
2022/03/20 08:56:27;;;;;;;;;23.25;21.00;;;;;8.71;45.48;101855.56;5073786;27;45746;-79
2022/03/20 08:58:53;;;;;;;;;31.25;27.50;;;;;8.75;45.50;101857.13;5073417;27;46204;-80
2022/03/20 09:01:19;;;;;;;;;28.00;24.50;;;;;8.77;45.41;101865.75;5074013;28;45578;-80
2022/03/20 09:03:45;;;;;;;;;26.25;22.00;;;;;8.79;45.33;101858.72;5069300;28;45931;-79
2022/03/20 09:06:11;;;;;;;;;25.75;24.00;;;;;8.85;45.07;101868.91;5069005;28;49093;-79
2022/03/20 09:08:36;;;;;;;;;27.75;23.00;;;;;8.90;45.16;101866.94;5069479;27;46112;-80
2022/03/20 09:11:02;;;;;;;;;26.25;22.00;;;;;8.96;45.16;101873.66;5073437;27;45710;-80
2022/03/20 09:13:28;;;;;;;;;28.50;22.75;;;;;8.98;45.10;101864.81;5071127;27;45910;-82
2022/03/20 09:19:00;;;;;;;;;33.00;25.75;;;;;9.12;45.14;101867.66;5064458;28;46605;-79
2022/03/20 09:21:32;;;;;;;;;27.25;23.25;;;;;9.17;45.15;101868.31;5073110;27;45636;-81
2022/03/20 09:24:00;;;;;;;;;33.25;25.75;;;;;9.22;45.01;101870.72;5073341;28;45791;-81
2022/03/20 09:26:26;;;;;;;;;29.00;26.25;;;;;9.30;44.82;101872.97;5072459;28;46735;-81
2022/03/20 09:28:52;;;;;;;;;29.75;24.75;;;;;9.33;44.70;101871.09;5072537;27;46250;-80
2022/03/20 09:31:19;;;;;;;;;29.50;24.75;;;;;9.38;44.57;101878.72;5072722;28;46019;-80
2022/03/20 09:33:44;;;;;;;;;29.00;22.75;;;;;9.39;44.75;101864.72;5072637;27;45757;-80
2022/03/20 09:36:10;;;;;;;;;30.00;26.50;;;;;9.50;44.56;101883.41;5073521;27;46393;-80
2022/03/20 09:38:36;;;;;;;;;31.00;26.75;;;;;9.49;44.39;101864.22;5072125;27;45693;-80
2022/03/20 09:41:07;;;;;;;;;33.00;29.00;;;;;9.57;44.31;101869.94;5071780;28;46264;-80
2022/03/20 09:43:34;;;;;;;;;42.00;28.50;;;;;9.63;44.30;101863.56;5072798;28;45801;-80
2022/03/20 09:46:00;;;;;;;;;24.50;23.25;;;;;9.67;44.40;101871.19;5072881;28;45882;-80
2022/03/20 09:48:30;;;;;;;;;29.25;25.00;;;;;9.71;44.36;101863.22;5071487;28;46094;-81
2022/03/20 09:50:59;;;;;;;;;30.00;26.25;;;;;9.76;44.34;101859.47;5073019;27;45857;-81
2022/03/20 09:53:25;;;;;;;;;31.25;23.75;;;;;9.79;44.13;101853.22;5073163;27;45549;-80
2022/03/20 09:55:54;;;;;;;;;27.50;25.00;;;;;9.85;44.04;101852.94;5072950;27;46302;-80
2022/03/20 09:58:24;;;;;;;;;32.75;29.00;;;;;9.91;44.16;101861.34;5070124;27;46254;-80
2022/03/20 10:00:49;;;;;;;;;25.25;24.50;;;;;9.94;43.97;101850.72;5068553;28;46030;-80
2022/03/20 10:03:21;;;;;;;;;31.75;25.00;;;;;10.01;43.44;101857.34;5072831;27;45660;-80
2022/03/20 10:06:22;;;;;;;;;26.75;25.00;;;;;10.07;43.33;101864.91;5069960;27;46795;-79
2022/03/20 10:08:56;;;;;;;;;26.25;24.50;;;;;10.11;43.19;101869.06;5065952;27;46248;-79
2022/03/20 10:11:23;;;;;;;;;27.75;23.00;;;;;10.14;42.80;101867.25;5066165;28;45946;-80
2022/03/20 10:14:14;;;;;;;;;28.25;24.75;;;;;10.17;42.81;101862.72;5072618;27;45851;-80
2022/03/20 10:16:48;;;;;;;;;27.25;22.25;;;;;10.22;42.69;101865.97;5063735;27;46225;-80
2022/03/20 10:19:22;;;;;;;;;25.00;22.25;;;;;10.28;42.62;101875.28;5063009;28;46290;-79
2022/03/20 10:21:51;;;;;;;;;23.00;21.75;;;;;10.30;42.48;101865.59;5071448;27;45763;-80
2022/03/20 10:24:18;;;;;;;;;21.25;20.00;;;;;10.37;42.60;101862.56;5064200;27;45581;-79
2022/03/20 10:26:44;;;;;;;;;28.75;25.00;;;;;10.41;41.96;101865.91;5071673;28;46488;-81
2022/03/20 10:29:15;;;;;;;;;17.00;16.50;;;;;10.44;42.28;101857.88;5070863;27;46203;-80
2022/03/20 10:31:51;;;;;;;;;28.25;24.00;;;;;10.52;42.16;101863.59;5065416;28;45590;-79
2022/03/20 10:34:18;;;;;;;;;26.50;23.25;;;;;10.60;41.50;101868.44;5085334;27;46009;-79
2022/03/20 10:36:45;;;;;;;;;21.75;20.00;;;;;10.62;41.53;101867.44;5072292;27;45783;-80
2022/03/20 10:39:12;;;;;;;;;22.25;18.75;;;;;10.68;40.71;101875.00;5058175;28;46078;-80
2022/03/20 10:41:39;;;;;;;;;23.50;18.75;;;;;10.71;40.68;101864.34;5081499;27;45798;-79
2022/03/20 10:44:28;;;;;;;;;22.25;17.00;;;;;10.78;40.53;101870.97;5059344;27;45528;-79
2022/03/20 10:47:04;;;;;;;;;18.00;17.00;;;;;10.84;40.32;101867.19;5010937;28;45672;-80
2022/03/20 10:49:32;;;;;;;;;22.75;18.50;;;;;10.89;40.12;101862.53;5028499;28;46221;-80
2022/03/20 10:52:05;;;;;;;;;17.75;17.00;;;;;10.95;39.89;101864.84;5015180;28;45756;-80
2022/03/20 10:54:50;;;;;;;;;22.50;18.00;;;;;10.99;39.75;101863.75;5016561;28;45669;-80
2022/03/20 10:57:16;;;;;;;;;17.50;17.00;;;;;11.05;39.41;101868.69;5028975;28;46304;-80
2022/03/20 10:59:42;;;;;;;;;23.25;19.00;;;;;11.09;39.49;101861.50;5017501;28;46089;-80
2022/03/20 11:02:22;;;;;;;;;19.25;17.00;;;;;11.12;39.53;101859.53;5009442;28;46109;-81
2022/03/20 11:04:49;;;;;;;;;19.75;17.25;;;;;11.20;39.57;101859.13;5009496;28;45779;-81
2022/03/20 11:07:17;;;;;;;;;18.50;16.50;;;;;11.23;39.16;101848.47;5022275;28;45781;-81
2022/03/20 11:09:50;;;;;;;;;24.00;19.50;;;;;11.30;38.98;101853.31;5028320;28;46489;-81
2022/03/20 11:12:24;;;;;;;;;20.25;18.50;;;;;11.35;38.78;101859.16;5009507;28;45878;-80
2022/03/20 11:14:49;;;;;;;;;18.75;15.00;;;;;11.40;38.76;101861.53;5015565;28;46304;-79
2022/03/20 11:17:19;;;;;;;;;15.00;14.25;;;;;11.42;38.32;101846.56;5014977;28;45795;-82
2022/03/20 11:19:52;;;;;;;;;13.75;12.50;;;;;11.47;38.32;101859.41;5020967;28;45875;-81
2022/03/20 11:22:21;;;;;;;;;19.75;15.50;;;;;11.51;37.52;101856.53;5009217;28;45951;-82
2022/03/20 11:24:49;;;;;;;;;17.25;15.00;;;;;11.55;37.35;101855.44;5059550;28;45682;-82
2022/03/20 11:27:22;;;;;;;;;17.25;14.50;;;;;11.59;37.13;101848.25;5070932;27;45644;-81
2022/03/20 11:29:50;;;;;;;;;12.50;12.00;;;;;11.60;37.04;101845.56;5066491;28;46489;-81
2022/03/20 11:32:18;;;;;;;;;18.50;17.25;;;;;11.66;36.81;101849.63;5068541;28;45901;-79
2022/03/20 11:34:46;;;;;;;;;10.00;10.00;;;;;11.69;36.56;101845.03;5071576;27;45584;-82
2022/03/20 11:37:15;;;;;;;;;19.00;14.75;;;;;11.75;36.50;101855.22;5061163;27;45797;-79
2022/03/20 11:40:08;;;;;;;;;18.00;16.00;;;;;11.81;36.55;101853.19;5070833;27;46250;-81
2022/03/20 11:42:34;;;;;;;;;18.50;15.00;;;;;11.83;35.70;101849.53;5054722;28;46300;-79
2022/03/20 11:44:59;;;;;;;;;13.75;13.25;;;;;11.87;35.59;101843.19;5082621;27;45696;-80
2022/03/20 11:47:29;;;;;;;;;15.25;12.75;;;;;11.90;35.43;101845.63;5071111;28;45660;-81
2022/03/20 11:50:17;;;;;;;;;19.50;16.25;;;;;11.94;35.51;101854.19;5070772;28;46141;-78
2022/03/20 11:52:58;;;;;;;;;15.00;13.50;;;;;11.99;35.79;101849.50;5071689;27;45902;-81
2022/03/20 11:55:31;;;;;;;;;26.50;23.75;;;;;12.03;35.78;101843.16;5088247;27;45734;-81
2022/03/20 11:57:59;;;;;;;;;19.00;16.25;;;;;12.08;35.68;101841.97;5069703;27;46572;-81
2022/03/20 12:00:29;;;;;;;;;17.00;15.75;;;;;12.12;35.38;101840.00;5073085;28;47628;-80
2022/03/20 12:03:13;;;;;;;;;15.00;14.25;;;;;12.16;34.97;101842.34;5074369;27;45876;-80
2022/03/20 12:05:41;;;;;;;;;16.00;14.75;;;;;12.23;34.84;101836.75;5074751;27;45794;-79
2022/03/20 12:08:31;;;;;;;;;18.50;17.00;;;;;12.26;35.18;101840.03;5073692;28;47903;-81
2022/03/20 12:11:19;;;;;;;;;19.75;15.75;;;;;12.30;35.06;101833.69;5076039;27;47395;-82
2022/03/20 12:14:19;;;;;;;;;15.50;14.00;;;;;12.34;35.08;101826.47;5074540;27;45870;-81
2022/03/20 12:16:44;;;;;;;;;17.00;14.75;;;;;12.39;34.82;101824.41;5071569;28;46138;-81
2022/03/20 12:19:14;;;;;;;;;14.75;13.00;;;;;12.44;35.12;101825.81;5073144;28;45769;-80
2022/03/20 12:21:52;;;;;;;;;15.75;14.25;;;;;12.50;35.16;101819.34;5066555;27;46257;-79
2022/03/20 12:24:36;;;;;;;;;23.50;17.50;;;;;12.55;35.00;101814.66;5074458;27;45881;-82
2022/03/20 12:27:29;;;;;;;;;21.25;17.75;;;;;12.62;35.14;101813.38;5074142;27;45976;-79
2022/03/20 12:30:14;;;;;;;;;18.75;17.00;;;;;12.66;35.01;101811.41;5031002;28;46284;-80
2022/03/20 12:32:48;;;;;;;;;18.25;16.75;;;;;12.70;35.11;101805.84;5036985;28;46194;-81
2022/03/20 12:35:16;;;;;;;;;19.50;19.00;;;;;12.74;34.96;101803.91;5031488;28;45998;-80
2022/03/20 12:37:43;;;;;;;;;24.50;19.50;;;;;12.78;35.02;101802.78;5031314;28;45816;-80